sensor_id;sensor_type;location;lat;lon;timestamp;pressure;altitude;pressure_sealevel;temperature;humidity
74327;BME280;62745;51.060;13.786;2023-10-31T00:01:20;98150.63;;;14.28;100.00
74327;BME280;62745;51.060;13.786;2023-10-31T00:03:46;98134.75;;;14.21;100.00
74327;BME280;62745;51.060;13.786;2023-10-31T00:06:11;98119.72;;;14.20;100.00
74327;BME280;62745;51.060;13.786;2023-10-31T00:08:36;98114.06;;;14.22;100.00
74327;BME280;62745;51.060;13.786;2023-10-31T00:11:02;98100.91;;;14.20;100.00
74327;BME280;62745;51.060;13.786;2023-10-31T00:13:27;98102.53;;;14.21;100.00
74327;BME280;62745;51.060;13.786;2023-10-31T00:15:52;98128.28;;;14.22;100.00
74327;BME280;62745;51.060;13.786;2023-10-31T00:18:17;98143.34;;;14.18;100.00
74327;BME280;62745;51.060;13.786;2023-10-31T00:20:43;98157.03;;;14.17;100.00
74327;BME280;62745;51.060;13.786;2023-10-31T00:23:08;98151.13;;;14.14;100.00
74327;BME280;62745;51.060;13.786;2023-10-31T00:25:33;98143.63;;;14.11;100.00
74327;BME280;62745;51.060;13.786;2023-10-31T00:27:58;98160.00;;;14.15;100.00
74327;BME280;62745;51.060;13.786;2023-10-31T00:30:24;98173.38;;;14.05;100.00
74327;BME280;62745;51.060;13.786;2023-10-31T00:32:49;98186.00;;;13.99;100.00
74327;BME280;62745;51.060;13.786;2023-10-31T00:35:14;98196.19;;;13.97;100.00
74327;BME280;62745;51.060;13.786;2023-10-31T00:37:40;98187.03;;;13.93;100.00
74327;BME280;62745;51.060;13.786;2023-10-31T00:40:08;98189.75;;;13.98;100.00
74327;BME280;62745;51.060;13.786;2023-10-31T00:42:39;98188.63;;;13.89;100.00
74327;BME280;62745;51.060;13.786;2023-10-31T00:45:07;98184.63;;;13.92;100.00
74327;BME280;62745;51.060;13.786;2023-10-31T00:47:33;98191.09;;;13.96;100.00
74327;BME280;62745;51.060;13.786;2023-10-31T00:49:58;98191.06;;;13.85;100.00
74327;BME280;62745;51.060;13.786;2023-10-31T00:52:24;98184.84;;;13.75;100.00
74327;BME280;62745;51.060;13.786;2023-10-31T00:54:49;98171.72;;;13.78;100.00
74327;BME280;62745;51.060;13.786;2023-10-31T00:57:14;98158.53;;;13.77;100.00
74327;BME280;62745;51.060;13.786;2023-10-31T00:59:39;98148.09;;;13.80;100.00
74327;BME280;62745;51.060;13.786;2023-10-31T01:02:05;98143.78;;;13.74;100.00
74327;BME280;62745;51.060;13.786;2023-10-31T01:04:30;98128.47;;;13.70;100.00
74327;BME280;62745;51.060;13.786;2023-10-31T01:06:56;98121.50;;;13.74;100.00
74327;BME280;62745;51.060;13.786;2023-10-31T01:09:22;98122.03;;;13.71;100.00
74327;BME280;62745;51.060;13.786;2023-10-31T01:11:47;98121.50;;;13.69;100.00
74327;BME280;62745;51.060;13.786;2023-10-31T01:14:12;98125.00;;;13.69;100.00
74327;BME280;62745;51.060;13.786;2023-10-31T01:16:39;98113.44;;;13.64;100.00
74327;BME280;62745;51.060;13.786;2023-10-31T01:19:04;98110.50;;;13.65;100.00
74327;BME280;62745;51.060;13.786;2023-10-31T01:21:30;98100.84;;;13.64;100.00
74327;BME280;62745;51.060;13.786;2023-10-31T01:23:55;98096.28;;;13.65;100.00
74327;BME280;62745;51.060;13.786;2023-10-31T01:26:20;98105.41;;;13.69;100.00
74327;BME280;62745;51.060;13.786;2023-10-31T01:28:45;98106.22;;;13.69;100.00
74327;BME280;62745;51.060;13.786;2023-10-31T01:31:11;98103.78;;;13.73;100.00
74327;BME280;62745;51.060;13.786;2023-10-31T01:33:36;98092.50;;;13.61;100.00
74327;BME280;62745;51.060;13.786;2023-10-31T01:36:01;98093.31;;;13.66;100.00
74327;BME280;62745;51.060;13.786;2023-10-31T01:38:27;98083.41;;;13.67;100.00
74327;BME280;62745;51.060;13.786;2023-10-31T01:40:52;98092.25;;;13.67;100.00
74327;BME280;62745;51.060;13.786;2023-10-31T01:43:35;98106.47;;;13.63;100.00
74327;BME280;62745;51.060;13.786;2023-10-31T01:46:00;98100.84;;;13.64;100.00
74327;BME280;62745;51.060;13.786;2023-10-31T01:48:28;98095.19;;;13.66;100.00
74327;BME280;62745;51.060;13.786;2023-10-31T01:50:54;98102.41;;;13.55;100.00
74327;BME280;62745;51.060;13.786;2023-10-31T01:53:20;98092.47;;;13.45;100.00
74327;BME280;62745;51.060;13.786;2023-10-31T01:55:45;98090.06;;;13.44;100.00
74327;BME280;62745;51.060;13.786;2023-10-31T01:58:11;98091.88;;;13.38;100.00
74327;BME280;62745;51.060;13.786;2023-10-31T02:00:40;98101.81;;;13.38;100.00
74327;BME280;62745;51.060;13.786;2023-10-31T02:03:08;98105.28;;;13.33;100.00
74327;BME280;62745;51.060;13.786;2023-10-31T02:05:34;98110.66;;;13.33;100.00
74327;BME280;62745;51.060;13.786;2023-10-31T02:08:00;98110.66;;;13.38;100.00
74327;BME280;62745;51.060;13.786;2023-10-31T02:10:26;98108.53;;;13.40;100.00
74327;BME280;62745;51.060;13.786;2023-10-31T02:12:51;98114.44;;;13.42;100.00
74327;BME280;62745;51.060;13.786;2023-10-31T02:15:16;98114.97;;;13.39;100.00
74327;BME280;62745;51.060;13.786;2023-10-31T02:17:42;98124.91;;;13.44;100.00
74327;BME280;62745;51.060;13.786;2023-10-31T02:20:07;98127.28;;;13.40;100.00
74327;BME280;62745;51.060;13.786;2023-10-31T02:22:33;98125.97;;;13.43;100.00
74327;BME280;62745;51.060;13.786;2023-10-31T02:24:58;98137.53;;;13.48;100.00
74327;BME280;62745;51.060;13.786;2023-10-31T02:27:23;98133.78;;;13.44;100.00
74327;BME280;62745;51.060;13.786;2023-10-31T02:29:48;98129.22;;;13.50;100.00
74327;BME280;62745;51.060;13.786;2023-10-31T02:32:14;98128.94;;;13.46;100.00
74327;BME280;62745;51.060;13.786;2023-10-31T02:34:39;98141.28;;;13.52;100.00
74327;BME280;62745;51.060;13.786;2023-10-31T02:37:04;98134.06;;;13.58;100.00
74327;BME280;62745;51.060;13.786;2023-10-31T02:39:30;98132.50;;;13.62;100.00
74327;BME280;62745;51.060;13.786;2023-10-31T02:41:55;98143.44;;;13.55;100.00
74327;BME280;62745;51.060;13.786;2023-10-31T02:44:21;98135.38;;;13.50;100.00
74327;BME280;62745;51.060;13.786;2023-10-31T02:46:46;98147.41;;;13.43;100.00
74327;BME280;62745;51.060;13.786;2023-10-31T02:49:11;98146.63;;;13.42;100.00
74327;BME280;62745;51.060;13.786;2023-10-31T02:51:36;98155.50;;;13.48;100.00
74327;BME280;62745;51.060;13.786;2023-10-31T02:54:02;98158.47;;;13.51;100.00
74327;BME280;62745;51.060;13.786;2023-10-31T02:56:27;98169.19;;;13.51;100.00
74327;BME280;62745;51.060;13.786;2023-10-31T02:58:52;98164.09;;;13.50;100.00
74327;BME280;62745;51.060;13.786;2023-10-31T03:01:18;98163.81;;;13.51;100.00
74327;BME280;62745;51.060;13.786;2023-10-31T03:03:45;98162.22;;;13.50;100.00
74327;BME280;62745;51.060;13.786;2023-10-31T03:06:10;98161.13;;;13.46;100.00
74327;BME280;62745;51.060;13.786;2023-10-31T03:08:36;98168.59;;;13.39;100.00
74327;BME280;62745;51.060;13.786;2023-10-31T03:11:01;98167.84;;;13.49;100.00
74327;BME280;62745;51.060;13.786;2023-10-31T03:13:26;98162.97;;;13.41;100.00
74327;BME280;62745;51.060;13.786;2023-10-31T03:15:52;98162.69;;;13.37;100.00
74327;BME280;62745;51.060;13.786;2023-10-31T03:18:17;98163.75;;;13.36;100.00
74327;BME280;62745;51.060;13.786;2023-10-31T03:20:44;98170.47;;;13.39;100.00
74327;BME280;62745;51.060;13.786;2023-10-31T03:23:11;98153.31;;;13.40;100.00
74327;BME280;62745;51.060;13.786;2023-10-31T03:25:36;98155.22;;;13.44;100.00
74327;BME280;62745;51.060;13.786;2023-10-31T03:28:03;98154.13;;;13.40;100.00
74327;BME280;62745;51.060;13.786;2023-10-31T03:30:28;98136.75;;;13.53;100.00
74327;BME280;62745;51.060;13.786;2023-10-31T03:32:53;98142.38;;;13.57;100.00
74327;BME280;62745;51.060;13.786;2023-10-31T03:35:18;98134.31;;;13.51;100.00
74327;BME280;62745;51.060;13.786;2023-10-31T03:37:44;98132.72;;;13.55;100.00
74327;BME280;62745;51.060;13.786;2023-10-31T03:40:09;98136.47;;;13.49;100.00
74327;BME280;62745;51.060;13.786;2023-10-31T03:42:34;98138.28;;;13.34;100.00
74327;BME280;62745;51.060;13.786;2023-10-31T03:45:00;98141.69;;;13.19;100.00
74327;BME280;62745;51.060;13.786;2023-10-31T03:47:25;98139.00;;;13.19;100.00
74327;BME280;62745;51.060;13.786;2023-10-31T03:49:50;98146.66;;;13.00;100.00
74327;BME280;62745;51.060;13.786;2023-10-31T03:52:16;98145.25;;;12.92;100.00
74327;BME280;62745;51.060;13.786;2023-10-31T03:54:41;98146.91;;;12.99;100.00
74327;BME280;62745;51.060;13.786;2023-10-31T03:57:06;98144.44;;;12.92;100.00
74327;BME280;62745;51.060;13.786;2023-10-31T03:59:31;98133.13;;;12.80;100.00
74327;BME280;62745;51.060;13.786;2023-10-31T04:01:57;98144.91;;;12.79;100.00
74327;BME280;62745;51.060;13.786;2023-10-31T04:04:22;98144.13;;;12.78;100.00
74327;BME280;62745;51.060;13.786;2023-10-31T04:06:47;98139.22;;;12.70;100.00
74327;BME280;62745;51.060;13.786;2023-10-31T04:09:13;98144.28;;;12.67;100.00
74327;BME280;62745;51.060;13.786;2023-10-31T04:11:39;98142.38;;;12.62;100.00
74327;BME280;62745;51.060;13.786;2023-10-31T04:14:04;98136.47;;;12.60;100.00
74327;BME280;62745;51.060;13.786;2023-10-31T04:16:31;98134.28;;;12.57;100.00
74327;BME280;62745;51.060;13.786;2023-10-31T04:18:56;98136.97;;;12.57;100.00
74327;BME280;62745;51.060;13.786;2023-10-31T04:21:21;98138.56;;;12.53;100.00
74327;BME280;62745;51.060;13.786;2023-10-31T04:23:47;98150.38;;;12.57;100.00
74327;BME280;62745;51.060;13.786;2023-10-31T04:26:12;98156.59;;;12.62;100.00
74327;BME280;62745;51.060;13.786;2023-10-31T04:28:37;98158.72;;;12.60;100.00
74327;BME280;62745;51.060;13.786;2023-10-31T04:31:03;98171.59;;;12.63;100.00
74327;BME280;62745;51.060;13.786;2023-10-31T04:33:29;98169.75;;;12.69;100.00
74327;BME280;62745;51.060;13.786;2023-10-31T04:35:54;98178.06;;;12.73;100.00
74327;BME280;62745;51.060;13.786;2023-10-31T04:38:20;98187.19;;;12.72;100.00
74327;BME280;62745;51.060;13.786;2023-10-31T04:40:45;98183.50;;;12.78;100.00
74327;BME280;62745;51.060;13.786;2023-10-31T04:43:10;98182.44;;;12.79;100.00
74327;BME280;62745;51.060;13.786;2023-10-31T04:45:36;98184.84;;;12.80;100.00
74327;BME280;62745;51.060;13.786;2023-10-31T04:48:01;98197.72;;;12.83;100.00
74327;BME280;62745;51.060;13.786;2023-10-31T04:50:26;98195.84;;;12.84;100.00
74327;BME280;62745;51.060;13.786;2023-10-31T04:52:52;98192.88;;;12.80;100.00
74327;BME280;62745;51.060;13.786;2023-10-31T04:55:17;98199.88;;;12.86;100.00
74327;BME280;62745;51.060;13.786;2023-10-31T04:57:42;98200.94;;;12.85;100.00
74327;BME280;62745;51.060;13.786;2023-10-31T05:00:08;98201.75;;;12.86;100.00
74327;BME280;62745;51.060;13.786;2023-10-31T05:02:33;98200.94;;;12.85;100.00
74327;BME280;62745;51.060;13.786;2023-10-31T05:04:59;98204.69;;;12.84;100.00
74327;BME280;62745;51.060;13.786;2023-10-31T05:07:24;98199.63;;;12.88;100.00
74327;BME280;62745;51.060;13.786;2023-10-31T05:09:50;98197.72;;;12.83;100.00
74327;BME280;62745;51.060;13.786;2023-10-31T05:12:15;98196.44;;;12.91;100.00
74327;BME280;62745;51.060;13.786;2023-10-31T05:14:40;98193.97;;;12.84;100.00
74327;BME280;62745;51.060;13.786;2023-10-31T05:17:06;98196.22;;;12.98;100.00
74327;BME280;62745;51.060;13.786;2023-10-31T05:19:31;98197.56;;;13.00;100.00
74327;BME280;62745;51.060;13.786;2023-10-31T05:21:56;98191.16;;;13.01;100.00
74327;BME280;62745;51.060;13.786;2023-10-31T05:24:21;98195.41;;;12.97;100.00
74327;BME280;62745;51.060;13.786;2023-10-31T05:26:47;98207.69;;;12.93;100.00
74327;BME280;62745;51.060;13.786;2023-10-31T05:29:12;98201.31;;;12.99;100.00
74327;BME280;62745;51.060;13.786;2023-10-31T05:31:37;98197.88;;;13.04;100.00
74327;BME280;62745;51.060;13.786;2023-10-31T05:34:03;98201.91;;;13.06;100.00
74327;BME280;62745;51.060;13.786;2023-10-31T05:36:29;98216.38;;;13.05;100.00
74327;BME280;62745;51.060;13.786;2023-10-31T05:38:54;98212.84;;;13.00;100.00
74327;BME280;62745;51.060;13.786;2023-10-31T05:41:19;98231.00;;;12.92;100.00
74327;BME280;62745;51.060;13.786;2023-10-31T05:43:45;98239.66;;;13.00;100.00
74327;BME280;62745;51.060;13.786;2023-10-31T05:46:10;98241.78;;;12.98;100.00
74327;BME280;62745;51.060;13.786;2023-10-31T05:48:40;98243.41;;;12.99;100.00
74327;BME280;62745;51.060;13.786;2023-10-31T05:51:16;98241.78;;;12.98;100.00
74327;BME280;62745;51.060;13.786;2023-10-31T05:53:45;98234.50;;;12.93;100.00
74327;BME280;62745;51.060;13.786;2023-10-31T05:56:15;98254.63;;;12.95;100.00
74327;BME280;62745;51.060;13.786;2023-10-31T05:58:41;98253.84;;;12.95;100.00
74327;BME280;62745;51.060;13.786;2023-10-31T06:01:07;98254.63;;;12.95;100.00
74327;BME280;62745;51.060;13.786;2023-10-31T06:03:33;98254.97;;;13.04;100.00
74327;BME280;62745;51.060;13.786;2023-10-31T06:05:59;98269.44;;;13.03;100.00
74327;BME280;62745;51.060;13.786;2023-10-31T06:08:24;98272.91;;;13.04;100.00
74327;BME280;62745;51.060;13.786;2023-10-31T06:10:53;98282.84;;;13.08;100.00
74327;BME280;62745;51.060;13.786;2023-10-31T06:13:18;98288.81;;;13.10;100.00
74327;BME280;62745;51.060;13.786;2023-10-31T06:15:43;98294.66;;;13.07;100.00
74327;BME280;62745;51.060;13.786;2023-10-31T06:18:09;98289.28;;;13.07;100.00
74327;BME280;62745;51.060;13.786;2023-10-31T06:20:34;98297.88;;;13.09;100.00
74327;BME280;62745;51.060;13.786;2023-10-31T06:23:01;98316.41;;;13.11;100.00
74327;BME280;62745;51.060;13.786;2023-10-31T06:25:28;98326.31;;;13.10;100.00
74327;BME280;62745;51.060;13.786;2023-10-31T06:27:53;98337.84;;;13.11;100.00
74327;BME280;62745;51.060;13.786;2023-10-31T06:30:19;98346.13;;;13.09;100.00
74327;BME280;62745;51.060;13.786;2023-10-31T06:32:44;98361.47;;;13.14;100.00
74327;BME280;62745;51.060;13.786;2023-10-31T06:35:09;98346.94;;;13.10;100.00
74327;BME280;62745;51.060;13.786;2023-10-31T06:37:34;98358.72;;;13.09;100.00
74327;BME280;62745;51.060;13.786;2023-10-31T06:40:01;98358.97;;;13.07;100.00
74327;BME280;62745;51.060;13.786;2023-10-31T06:42:26;98361.41;;;13.09;100.00
74327;BME280;62745;51.060;13.786;2023-10-31T06:44:52;98360.66;;;13.13;100.00
74327;BME280;62745;51.060;13.786;2023-10-31T06:47:17;98366.56;;;13.15;100.00
74327;BME280;62745;51.060;13.786;2023-10-31T06:49:42;98376.75;;;13.13;100.00
74327;BME280;62745;51.060;13.786;2023-10-31T06:52:07;98386.13;;;13.11;100.00
74327;BME280;62745;51.060;13.786;2023-10-31T06:54:33;98385.09;;;13.17;100.00
74327;BME280;62745;51.060;13.786;2023-10-31T06:56:59;98382.91;;;13.14;100.00
74327;BME280;62745;51.060;13.786;2023-10-31T06:59:26;98393.56;;;13.09;100.00
74327;BME280;62745;51.060;13.786;2023-10-31T07:01:52;98394.91;;;13.06;100.00
74327;BME280;62745;51.060;13.786;2023-10-31T07:04:18;98393.56;;;13.09;100.00
74327;BME280;62745;51.060;13.786;2023-10-31T07:06:43;98397.78;;;13.00;100.00
74327;BME280;62745;51.060;13.786;2023-10-31T07:09:08;98383.38;;;13.06;100.00
74327;BME280;62745;51.060;13.786;2023-10-31T07:11:34;98395.44;;;13.08;100.00
74327;BME280;62745;51.060;13.786;2023-10-31T07:14:03;98403.69;;;13.02;100.00
74327;BME280;62745;51.060;13.786;2023-10-31T07:16:29;98404.25;;;13.04;100.00
74327;BME280;62745;51.060;13.786;2023-10-31T07:18:55;98418.44;;;12.99;100.00
74327;BME280;62745;51.060;13.786;2023-10-31T07:21:20;98413.91;;;13.05;100.00
74327;BME280;62745;51.060;13.786;2023-10-31T07:23:45;98424.13;;;13.08;100.00
74327;BME280;62745;51.060;13.786;2023-10-31T07:26:11;98420.59;;;13.02;100.00
74327;BME280;62745;51.060;13.786;2023-10-31T07:28:36;98431.34;;;13.07;100.00
74327;BME280;62745;51.060;13.786;2023-10-31T07:31:01;98441.03;;;13.08;100.00
74327;BME280;62745;51.060;13.786;2023-10-31T07:33:27;98466.03;;;13.14;100.00
74327;BME280;62745;51.060;13.786;2023-10-31T07:35:52;98463.91;;;13.16;100.00
74327;BME280;62745;51.060;13.786;2023-10-31T07:38:17;98465.28;;;13.18;100.00
74327;BME280;62745;51.060;13.786;2023-10-31T07:40:43;98456.22;;;13.24;100.00
74327;BME280;62745;51.060;13.786;2023-10-31T07:43:08;98459.25;;;13.28;100.00
74327;BME280;62745;51.060;13.786;2023-10-31T07:45:33;98466.66;;;13.21;100.00
74327;BME280;62745;51.060;13.786;2023-10-31T07:47:59;98465.97;;;13.31;100.00
74327;BME280;62745;51.060;13.786;2023-10-31T07:50:24;98465.44;;;13.34;100.00
74327;BME280;62745;51.060;13.786;2023-10-31T07:52:49;98468.38;;;13.32;100.00
74327;BME280;62745;51.060;13.786;2023-10-31T07:55:14;98474.31;;;13.34;100.00
74327;BME280;62745;51.060;13.786;2023-10-31T07:57:40;98462.81;;;13.39;100.00
74327;BME280;62745;51.060;13.786;2023-10-31T08:00:09;98470.00;;;13.33;100.00
74327;BME280;62745;51.060;13.786;2023-10-31T08:02:36;98482.31;;;13.29;100.00
74327;BME280;62745;51.060;13.786;2023-10-31T08:05:01;98509.13;;;13.29;100.00
74327;BME280;62745;51.060;13.786;2023-10-31T08:07:26;98493.22;;;13.22;100.00
74327;BME280;62745;51.060;13.786;2023-10-31T08:09:55;98510.63;;;13.20;100.00
74327;BME280;62745;51.060;13.786;2023-10-31T08:12:20;98501.50;;;13.21;100.00
74327;BME280;62745;51.060;13.786;2023-10-31T08:14:46;98505.72;;;13.17;100.00
74327;BME280;62745;51.060;13.786;2023-10-31T08:17:11;98508.41;;;13.17;100.00
74327;BME280;62745;51.060;13.786;2023-10-31T08:19:36;98508.66;;;13.15;100.00
74327;BME280;62745;51.060;13.786;2023-10-31T08:22:02;98505.19;;;13.15;100.00
74327;BME280;62745;51.060;13.786;2023-10-31T08:24:27;98513.78;;;13.17;100.00
74327;BME280;62745;51.060;13.786;2023-10-31T08:26:52;98514.59;;;13.17;100.00
74327;BME280;62745;51.060;13.786;2023-10-31T08:29:18;98513.06;;;13.21;100.00
74327;BME280;62745;51.060;13.786;2023-10-31T08:31:43;98508.78;;;13.25;100.00
74327;BME280;62745;51.060;13.786;2023-10-31T08:34:08;98513.94;;;13.27;100.00
74327;BME280;62745;51.060;13.786;2023-10-31T08:36:33;98508.63;;;13.32;100.00
74327;BME280;62745;51.060;13.786;2023-10-31T08:38:59;98514.28;;;13.36;100.00
74327;BME280;62745;51.060;13.786;2023-10-31T08:41:24;98523.13;;;13.36;100.00
74327;BME280;62745;51.060;13.786;2023-10-31T08:43:49;98530.97;;;13.43;100.00
74327;BME280;62745;51.060;13.786;2023-10-31T08:46:15;98534.94;;;13.35;100.00
74327;BME280;62745;51.060;13.786;2023-10-31T08:48:40;98532.28;;;13.40;100.00
74327;BME280;62745;51.060;13.786;2023-10-31T08:51:05;98532.84;;;13.42;100.00
74327;BME280;62745;51.060;13.786;2023-10-31T08:53:31;98542.03;;;13.46;100.00
74327;BME280;62745;51.060;13.786;2023-10-31T08:55:59;98536.97;;;13.50;100.00
74327;BME280;62745;51.060;13.786;2023-10-31T08:58:24;98543.69;;;13.52;100.00
74327;BME280;62745;51.060;13.786;2023-10-31T09:00:49;98546.22;;;13.64;100.00
74327;BME280;62745;51.060;13.786;2023-10-31T09:03:15;98549.41;;;13.61;100.00
74327;BME280;62745;51.060;13.786;2023-10-31T09:05:40;98541.59;;;13.60;100.00
74327;BME280;62745;51.060;13.786;2023-10-31T09:08:05;98553.06;;;13.50;100.00
74327;BME280;62745;51.060;13.786;2023-10-31T09:10:32;98543.38;;;13.49;100.00
74327;BME280;62745;51.060;13.786;2023-10-31T09:12:58;98551.22;;;13.55;100.00
74327;BME280;62745;51.060;13.786;2023-10-31T09:15:23;98570.25;;;13.54;100.00
74327;BME280;62745;51.060;13.786;2023-10-31T09:17:49;98551.84;;;13.63;100.00
74327;BME280;62745;51.060;13.786;2023-10-31T09:20:14;98543.38;;;13.76;100.00
74327;BME280;62745;51.060;13.786;2023-10-31T09:22:39;98557.25;;;13.68;100.00
74327;BME280;62745;51.060;13.786;2023-10-31T09:25:05;98553.00;;;13.72;100.00
74327;BME280;62745;51.060;13.786;2023-10-31T09:27:30;98566.34;;;13.62;100.00
74327;BME280;62745;51.060;13.786;2023-10-31T09:29:55;98580.81;;;13.61;100.00
74327;BME280;62745;51.060;13.786;2023-10-31T09:32:21;98571.91;;;13.60;100.00
74327;BME280;62745;51.060;13.786;2023-10-31T09:34:46;98576.00;;;13.63;100.00
74327;BME280;62745;51.060;13.786;2023-10-31T09:37:11;98573.34;;;13.68;100.00
74327;BME280;62745;51.060;13.786;2023-10-31T09:39:36;98582.22;;;13.68;100.00
74327;BME280;62745;51.060;13.786;2023-10-31T09:42:02;98572.59;;;13.72;100.00
74327;BME280;62745;51.060;13.786;2023-10-31T09:44:27;98582.19;;;13.63;100.00
74327;BME280;62745;51.060;13.786;2023-10-31T09:46:53;98600.31;;;13.56;100.00
74327;BME280;62745;51.060;13.786;2023-10-31T09:49:18;98578.09;;;13.34;100.00
74327;BME280;62745;51.060;13.786;2023-10-31T09:51:43;98588.50;;;13.30;100.00
74327;BME280;62745;51.060;13.786;2023-10-31T09:54:11;98612.69;;;13.35;100.00
74327;BME280;62745;51.060;13.786;2023-10-31T09:56:40;98609.41;;;13.28;100.00
74327;BME280;62745;51.060;13.786;2023-10-31T09:59:07;98626.22;;;13.23;100.00
74327;BME280;62745;51.060;13.786;2023-10-31T10:01:32;98614.28;;;13.31;100.00
74327;BME280;62745;51.060;13.786;2023-10-31T10:03:57;98640.09;;;13.37;100.00
74327;BME280;62745;51.060;13.786;2023-10-31T10:06:24;98634.72;;;13.37;100.00
74327;BME280;62745;51.060;13.786;2023-10-31T10:08:50;98659.81;;;13.48;100.00
74327;BME280;62745;51.060;13.786;2023-10-31T10:11:15;98637.69;;;13.41;100.00
74327;BME280;62745;51.060;13.786;2023-10-31T10:13:41;98620.38;;;13.48;100.00
74327;BME280;62745;51.060;13.786;2023-10-31T10:16:06;98621.06;;;13.61;100.00
74327;BME280;62745;51.060;13.786;2023-10-31T10:18:33;98640.75;;;13.71;100.00
74327;BME280;62745;51.060;13.786;2023-10-31T10:21:06;98638.34;;;13.75;100.00
74327;BME280;62745;51.060;13.786;2023-10-31T10:23:32;98634.72;;;13.86;100.00
74327;BME280;62745;51.060;13.786;2023-10-31T10:25:59;98635.72;;;14.07;100.00
74327;BME280;62745;51.060;13.786;2023-10-31T10:28:25;98641.47;;;14.15;100.00
74327;BME280;62745;51.060;13.786;2023-10-31T10:30:52;98639.22;;;14.07;100.00
74327;BME280;62745;51.060;13.786;2023-10-31T10:33:18;98635.69;;;14.02;100.00
74327;BME280;62745;51.060;13.786;2023-10-31T10:35:44;98639.59;;;13.89;100.00
74327;BME280;62745;51.060;13.786;2023-10-31T10:38:13;98617.66;;;13.97;100.00
74327;BME280;62745;51.060;13.786;2023-10-31T10:40:44;98623.66;;;14.09;100.00
74327;BME280;62745;51.060;13.786;2023-10-31T10:43:20;98624.03;;;13.91;100.00
74327;BME280;62745;51.060;13.786;2023-10-31T10:45:45;98626.53;;;13.98;100.00
74327;BME280;62745;51.060;13.786;2023-10-31T10:48:15;98628.41;;;13.97;100.00
74327;BME280;62745;51.060;13.786;2023-10-31T10:50:43;98622.41;;;14.17;100.00
74327;BME280;62745;51.060;13.786;2023-10-31T10:53:20;98614.22;;;14.02;100.00
74327;BME280;62745;51.060;13.786;2023-10-31T10:55:51;98608.34;;;14.05;100.00
74327;BME280;62745;51.060;13.786;2023-10-31T11:00:50;98611.91;;;13.83;100.00
74327;BME280;62745;51.060;13.786;2023-10-31T11:03:16;98611.91;;;13.83;100.00
74327;BME280;62745;51.060;13.786;2023-10-31T11:05:42;98626.91;;;13.79;100.00
74327;BME280;62745;51.060;13.786;2023-10-31T11:08:08;98611.72;;;13.68;100.00
74327;BME280;62745;51.060;13.786;2023-10-31T11:10:34;98631.31;;;13.69;100.00
74327;BME280;62745;51.060;13.786;2023-10-31T11:13:00;98627.22;;;13.61;100.00
74327;BME280;62745;51.060;13.786;2023-10-31T11:15:26;98633.41;;;13.62;100.00
74327;BME280;62745;51.060;13.786;2023-10-31T11:17:53;98622.47;;;13.68;100.00
74327;BME280;62745;51.060;13.786;2023-10-31T11:20:20;98631.38;;;13.74;100.00
74327;BME280;62745;51.060;13.786;2023-10-31T11:22:46;98624.50;;;13.83;100.00
74327;BME280;62745;51.060;13.786;2023-10-31T11:25:20;98631.91;;;13.98;100.00
74327;BME280;62745;51.060;13.786;2023-10-31T11:27:50;98640.25;;;14.01;100.00
74327;BME280;62745;51.060;13.786;2023-10-31T11:30:26;98633.97;;;13.91;100.00
74327;BME280;62745;51.060;13.786;2023-10-31T11:32:53;98645.38;;;14.03;100.00
74327;BME280;62745;51.060;13.786;2023-10-31T11:35:19;98643.47;;;13.98;100.00
74327;BME280;62745;51.060;13.786;2023-10-31T11:37:48;98660.81;;;13.91;99.56
74327;BME280;62745;51.060;13.786;2023-10-31T11:40:19;98631.94;;;14.03;99.37
74327;BME280;62745;51.060;13.786;2023-10-31T11:42:53;98632.19;;;14.01;99.39
74327;BME280;62745;51.060;13.786;2023-10-31T11:45:29;98629.78;;;14.00;99.57
74327;BME280;62745;51.060;13.786;2023-10-31T11:47:55;98636.50;;;14.02;98.98
74327;BME280;62745;51.060;13.786;2023-10-31T11:50:21;98641.41;;;14.10;98.22
74327;BME280;62745;51.060;13.786;2023-10-31T11:53:02;98641.84;;;13.97;98.50
74327;BME280;62745;51.060;13.786;2023-10-31T11:55:30;98657.88;;;13.92;98.36
74327;BME280;62745;51.060;13.786;2023-10-31T11:57:59;98638.81;;;13.94;100.00
74327;BME280;62745;51.060;13.786;2023-10-31T12:00:24;98665.31;;;13.85;100.00
74327;BME280;62745;51.060;13.786;2023-10-31T12:03:02;98652.41;;;13.82;100.00
74327;BME280;62745;51.060;13.786;2023-10-31T12:05:28;98656.16;;;13.81;98.77
74327;BME280;62745;51.060;13.786;2023-10-31T12:07:53;98668.69;;;13.75;100.00
74327;BME280;62745;51.060;13.786;2023-10-31T12:10:24;98692.28;;;13.73;100.00
74327;BME280;62745;51.060;13.786;2023-10-31T12:12:50;98693.66;;;13.76;100.00
74327;BME280;62745;51.060;13.786;2023-10-31T12:15:16;98695.91;;;13.84;97.81
74327;BME280;62745;51.060;13.786;2023-10-31T12:17:41;98700.97;;;13.80;99.53
74327;BME280;62745;51.060;13.786;2023-10-31T12:20:08;98685.44;;;13.82;98.86
74327;BME280;62745;51.060;13.786;2023-10-31T12:22:34;98693.78;;;13.86;99.87
74327;BME280;62745;51.060;13.786;2023-10-31T12:25:04;98683.00;;;13.81;99.72
74327;BME280;62745;51.060;13.786;2023-10-31T12:27:44;98656.66;;;13.78;100.00
74327;BME280;62745;51.060;13.786;2023-10-31T12:30:11;98660.91;;;13.74;100.00
74327;BME280;62745;51.060;13.786;2023-10-31T12:32:37;98663.06;;;13.77;99.58
74327;BME280;62745;51.060;13.786;2023-10-31T12:35:03;98688.75;;;13.68;98.15
74327;BME280;62745;51.060;13.786;2023-10-31T12:37:29;98650.66;;;13.71;99.35